Time;durP1;ratioP1;P1;durP2;ratioP2;P2;SDS_P1;SDS_P2;PMS_P1;PMS_P2;Temp;Humidity;BMP_temperature;BMP_pressure;BME280_temperature;BME280_humidity;BME280_pressure;Samples;Min_cycle;Max_cycle;Signal;HPM_P1;HPM_P2
2022/08/26 00:01:01;;;;;;;15.63;11.35;;;;;;;19.59;85.08;96041.41;4990577;28;20524;-79
2022/08/26 00:03:28;;;;;;;16.33;11.00;;;;;;;19.56;85.39;96037.44;4992171;28;20046;-79
2022/08/26 00:05:54;;;;;;;19.23;11.23;;;;;;;19.53;85.24;96039.00;4996821;28;20490;-79
2022/08/26 00:08:21;;;;;;;18.15;12.18;;;;;;;19.55;85.67;96039.41;4990903;28;20077;-79
2022/08/26 00:10:48;;;;;;;22.17;12.20;;;;;;;19.50;85.26;96039.75;4992421;28;20082;-79
2022/08/26 00:13:15;;;;;;;19.75;11.32;;;;;;;19.50;85.48;96038.97;4992709;28;20046;-79
2022/08/26 00:15:43;;;;;;;17.92;11.93;;;;;;;19.45;85.54;96037.34;4993200;28;20413;-79
2022/08/26 00:18:10;;;;;;;16.58;11.27;;;;;;;19.43;85.42;96027.88;4992742;28;20677;-79
2022/08/26 00:20:38;;;;;;;15.82;11.20;;;;;;;19.40;85.48;96028.63;4993561;28;20049;-79
2022/08/26 00:23:05;;;;;;;16.20;10.50;;;;;;;19.39;86.14;96033.34;4991970;28;20042;-79
2022/08/26 00:25:33;;;;;;;17.52;11.70;;;;;;;19.36;86.01;96030.56;4994877;28;20043;-78
2022/08/26 00:27:59;;;;;;;18.45;11.05;;;;;;;19.36;86.46;96034.13;4994090;28;20047;-79
2022/08/26 00:30:29;;;;;;;14.95;10.85;;;;;;;19.37;86.24;96029.38;4994974;28;20073;-79
2022/08/26 00:32:57;;;;;;;15.10;10.25;;;;;;;19.35;86.05;96026.22;4995583;28;20413;-79
2022/08/26 00:35:27;;;;;;;15.52;10.35;;;;;;;19.33;86.19;96028.59;4994248;28;20046;-78
2022/08/26 00:37:54;;;;;;;16.13;10.75;;;;;;;19.32;86.30;96027.78;4993978;28;20050;-78
2022/08/26 00:40:23;;;;;;;17.77;11.95;;;;;;;19.34;85.92;96030.16;4994293;28;20042;-80
2022/08/26 00:42:50;;;;;;;15.27;10.60;;;;;;;19.26;85.57;96029.31;4994673;28;20104;-79
2022/08/26 00:45:17;;;;;;;16.45;10.95;;;;;;;19.26;86.01;96024.59;4992478;28;20053;-79
2022/08/26 00:47:46;;;;;;;15.48;10.88;;;;;;;19.27;86.38;96028.16;4992741;28;20070;-79
2022/08/26 00:50:18;;;;;;;16.35;11.30;;;;;;;19.23;86.20;96022.59;4992674;28;20069;-78
2022/08/26 00:52:45;;;;;;;18.52;11.60;;;;;;;19.20;86.37;96026.09;4992370;28;20046;-78
2022/08/26 00:55:17;;;;;;;13.70;10.57;;;;;;;19.20;86.66;96026.09;4991699;28;20539;-78
2022/08/26 00:57:44;;;;;;;15.55;10.57;;;;;;;19.22;86.95;96028.50;4994050;28;20061;-78
2022/08/26 01:00:14;;;;;;;17.85;11.15;;;;;;;19.25;87.28;96027.72;4995698;28;20050;-78
2022/08/26 01:02:42;;;;;;;17.98;12.52;;;;;;;19.25;87.39;96033.25;4995650;28;20053;-78
2022/08/26 01:05:10;;;;;;;15.48;11.75;;;;;;;19.27;87.32;96028.16;4995890;28;20042;-79
2022/08/26 01:07:39;;;;;;;20.45;12.20;;;;;;;19.26;87.12;96034.81;4996163;28;20042;-78
2022/08/26 01:10:09;;;;;;;14.90;11.35;;;;;;;19.26;86.75;96034.81;4996155;28;20046;-78
2022/08/26 01:12:40;;;;;;;17.67;11.57;;;;;;;19.23;87.16;96035.59;4996129;28;20053;-78
2022/08/26 01:15:08;;;;;;;17.27;11.23;;;;;;;19.23;87.15;96033.63;4996116;28;20634;-81
2022/08/26 01:17:34;;;;;;;18.13;11.90;;;;;;;19.22;87.05;96025.75;4995698;28;20046;-79
2022/08/26 01:20:06;;;;;;;16.33;11.65;;;;;;;19.15;87.00;96022.91;4996081;28;20057;-78
2022/08/26 01:22:43;;;;;;;18.75;11.07;;;;;;;19.11;87.29;96028.41;4993554;28;20045;-78
2022/08/26 01:25:10;;;;;;;16.85;11.02;;;;;;;19.14;87.55;96029.59;4994848;28;20046;-78
2022/08/26 01:27:36;;;;;;;19.45;12.15;;;;;;;19.12;87.47;96029.19;4995293;28;20049;-78
2022/08/26 01:30:05;;;;;;;15.55;11.65;;;;;;;19.16;87.36;96025.31;4994952;28;20046;-79
2022/08/26 01:32:33;;;;;;;18.00;11.27;;;;;;;19.13;86.86;96025.25;4995142;28;20457;-78
2022/08/26 01:35:00;;;;;;;17.98;11.60;;;;;;;19.07;86.82;96027.59;4995657;28;20423;-78
2022/08/26 01:37:32;;;;;;;16.95;11.35;;;;;;;19.05;87.21;96021.63;4995721;28;20045;-80
2022/08/26 01:40:03;;;;;;;16.83;11.47;;;;;;;19.07;87.38;96026.78;4995662;28;20065;-79
2022/08/26 01:42:29;;;;;;;15.70;11.55;;;;;;;19.03;87.73;96033.06;4995498;28;20313;-79
2022/08/26 01:45:00;;;;;;;15.65;11.10;;;;;;;19.07;87.44;96043.34;4995818;28;20410;-79
2022/08/26 01:47:31;;;;;;;17.30;11.38;;;;;;;19.03;87.12;96033.06;4995353;28;20038;-79
2022/08/26 01:50:01;;;;;;;16.75;11.15;;;;;;;19.01;86.73;96035.41;4996885;28;20053;-79
2022/08/26 01:52:31;;;;;;;16.92;11.98;;;;;;;18.98;87.04;96036.16;4995927;28;20588;-80
2022/08/26 01:54:59;;;;;;;17.70;11.68;;;;;;;18.95;87.30;96036.13;4997092;28;20060;-79
2022/08/26 01:57:28;;;;;;;16.73;11.75;;;;;;;18.91;87.77;96030.59;4996342;28;20049;-78
2022/08/26 01:59:58;;;;;;;17.17;12.07;;;;;;;18.89;87.55;96032.91;4997045;28;20046;-79
2022/08/26 02:02:25;;;;;;;19.27;12.30;;;;;;;18.86;87.33;96030.94;4995156;28;20046;-79
2022/08/26 02:04:57;;;;;;;16.60;11.13;;;;;;;18.81;87.35;96025.75;4996945;28;20541;-79
2022/08/26 02:07:24;;;;;;;14.13;10.70;;;;;;;18.73;86.89;96029.59;4996238;28;20093;-79
2022/08/26 02:09:51;;;;;;;16.45;11.50;;;;;;;18.68;87.24;96032.72;4995559;28;20097;-78
2022/08/26 02:12:19;;;;;;;15.75;10.98;;;;;;;18.66;87.67;96029.50;4997076;28;20046;-78
2022/08/26 02:14:52;;;;;;;18.63;10.80;;;;;;;18.64;87.70;96037.38;4996552;28;20054;-80
2022/08/26 02:17:23;;;;;;;17.85;11.60;;;;;;;18.63;87.77;96033.03;4995733;28;20141;-80
2022/08/26 02:19:50;;;;;;;14.32;10.85;;;;;;;18.65;88.20;96033.44;4994591;28;20398;-78
2022/08/26 02:22:19;;;;;;;17.88;12.25;;;;;;;18.66;88.48;96029.50;4994374;28;20046;-78
2022/08/26 02:24:49;;;;;;;15.50;11.10;;;;;;;18.63;88.73;96030.25;4996086;28;20077;-79
2022/08/26 02:27:17;;;;;;;15.27;12.15;;;;;;;18.62;88.25;96034.97;4995287;28;20046;-79
2022/08/26 02:29:47;;;;;;;19.67;13.05;;;;;;;18.62;88.45;96031.44;4995323;28;20054;-78
2022/08/26 02:32:15;;;;;;;18.60;13.80;;;;;;;18.58;88.90;96027.84;4994538;28;20401;-80
2022/08/26 02:34:42;;;;;;;20.30;12.93;;;;;;;18.50;89.22;96032.50;4994818;28;20046;-79
2022/08/26 02:37:10;;;;;;;19.90;13.88;;;;;;;18.39;89.12;96032.38;4994361;28;20058;-79
2022/08/26 02:39:39;;;;;;;18.27;12.52;;;;;;;18.33;89.27;96035.84;4994474;28;20050;-79
2022/08/26 02:42:06;;;;;;;16.60;12.15;;;;;;;18.31;89.44;96036.22;4995082;28;20502;-79
2022/08/26 02:44:34;;;;;;;15.50;12.13;;;;;;;18.35;89.79;96036.25;4996015;28;20131;-78
2022/08/26 02:47:00;;;;;;;18.95;12.60;;;;;;;18.42;90.23;96025.31;4994746;28;20047;-78
2022/08/26 02:49:29;;;;;;;21.77;12.45;;;;;;;18.42;89.44;96025.31;4996051;28;20555;-79
2022/08/26 02:51:56;;;;;;;19.25;12.25;;;;;;;18.42;89.58;96014.28;4995219;28;20050;-79
2022/08/26 02:54:23;;;;;;;19.08;12.60;;;;;;;18.40;89.48;96028.44;4992166;28;20085;-80
2022/08/26 02:56:50;;;;;;;20.60;13.32;;;;;;;18.41;89.82;96016.25;4994980;28;20054;-79
2022/08/26 02:59:16;;;;;;;20.27;12.90;;;;;;;18.40;89.12;96025.69;4994158;28;20061;-79
2022/08/26 03:01:43;;;;;;;18.00;12.98;;;;;;;18.42;89.12;96020.59;4994080;28;20074;-78
2022/08/26 03:04:11;;;;;;;16.27;12.23;;;;;;;18.40;89.40;96028.44;4994556;28;20042;-79
2022/08/26 03:06:39;;;;;;;19.25;12.13;;;;;;;18.43;89.42;96021.41;4994467;28;20050;-80
2022/08/26 03:09:06;;;;;;;18.05;12.63;;;;;;;18.47;89.47;96017.50;4992992;28;20077;-79
2022/08/26 03:11:34;;;;;;;18.27;12.93;;;;;;;18.44;89.38;96012.75;4992967;28;20058;-80
2022/08/26 03:14:00;;;;;;;20.15;12.88;;;;;;;18.41;88.89;96021.75;4994906;28;20078;-79
2022/08/26 03:16:27;;;;;;;16.60;11.30;;;;;;;18.35;89.06;96015.00;4994169;28;20046;-79
2022/08/26 03:18:53;;;;;;;19.42;12.38;;;;;;;18.39;89.05;96015.03;4994007;28;20061;-79
2022/08/26 03:21:21;;;;;;;14.75;12.57;;;;;;;18.33;88.96;96011.84;4992902;28;20073;-79
2022/08/26 03:23:48;;;;;;;20.65;12.93;;;;;;;18.30;89.32;96017.28;4992541;28;20042;-79
2022/08/26 03:26:17;;;;;;;18.63;12.85;;;;;;;18.32;89.89;96015.75;4992875;28;20501;-79
2022/08/26 03:31:24;;;;;;;19.55;13.45;;;;;;;18.36;89.00;96004.75;4990468;28;20050;-79
2022/08/26 03:33:51;;;;;;;18.95;13.10;;;;;;;18.35;89.05;96003.97;4992772;28;20058;-80
2022/08/26 03:36:17;;;;;;;16.55;12.40;;;;;;;18.31;89.35;96003.13;4993259;28;20053;-79
2022/08/26 03:38:44;;;;;;;20.15;14.95;;;;;;;18.21;89.61;95998.28;4992909;28;20042;-79
2022/08/26 03:41:12;;;;;;;20.05;13.77;;;;;;;18.22;89.36;95999.91;4992232;28;20046;-79
2022/08/26 03:43:39;;;;;;;18.02;12.77;;;;;;;18.24;89.49;96001.09;4992800;28;20050;-79
2022/08/26 03:46:07;;;;;;;18.77;12.40;;;;;;;18.23;89.66;96001.47;4992723;28;20050;-79
2022/08/26 03:48:33;;;;;;;20.42;13.73;;;;;;;18.19;89.49;96006.16;4992295;28;20053;-80
2022/08/26 03:51:00;;;;;;;23.10;14.55;;;;;;;17.89;90.32;96004.19;4992471;28;20500;-79
2022/08/26 03:53:27;;;;;;;24.83;15.50;;;;;;;17.78;91.10;96013.50;4991853;28;20792;-80
2022/08/26 03:55:53;;;;;;;20.55;13.02;;;;;;;17.79;91.24;96009.56;4992592;28;20058;-79
2022/08/26 03:58:23;;;;;;;18.13;12.70;;;;;;;17.82;91.07;96015.13;4991925;28;20085;-79
2022/08/26 04:00:50;;;;;;;18.63;13.25;;;;;;;17.92;90.70;96017.22;4992710;28;20528;-79
2022/08/26 04:03:56;;;;;;;20.65;13.88;;;;;;;17.95;90.27;96013.72;4992290;28;20042;-79
2022/08/26 04:06:04;;;;;;;22.05;14.02;;;;;;;17.97;90.22;96019.66;4991403;28;20044;-80
2022/08/26 04:08:30;;;;;;;20.30;14.15;;;;;;;17.91;90.52;96018.41;4993834;28;20524;-79
2022/08/26 04:11:00;;;;;;;20.65;13.48;;;;;;;17.96;90.02;96014.53;4992885;28;20664;-79
2022/08/26 04:13:27;;;;;;;19.67;13.18;;;;;;;17.95;89.68;96002.69;4993261;28;20046;-80
2022/08/26 04:15:54;;;;;;;18.98;13.85;;;;;;;17.94;89.56;96005.84;4993316;28;20050;-79
2022/08/26 04:18:21;;;;;;;23.88;14.50;;;;;;;17.90;90.09;96011.28;4993146;28;20046;-79
2022/08/26 04:20:48;;;;;;;19.85;15.15;;;;;;;17.88;90.07;96010.88;4994126;28;20050;-79
2022/08/26 04:23:15;;;;;;;20.55;15.25;;;;;;;17.92;90.04;96011.72;4992688;28;20141;-79
2022/08/26 04:25:42;;;;;;;23.48;14.65;;;;;;;17.99;90.41;96014.56;4993466;28;20101;-79
2022/08/26 04:28:09;;;;;;;23.45;14.13;;;;;;;17.99;89.74;96014.56;4993594;28;20057;-79
2022/08/26 04:30:38;;;;;;;22.70;14.63;;;;;;;17.97;89.78;96011.41;4993321;28;20065;-79
2022/08/26 04:33:27;;;;;;;18.77;13.45;;;;;;;17.97;89.99;96005.88;4992868;28;20050;-81
2022/08/26 04:36:01;;;;;;;22.42;14.25;;;;;;;18.03;89.71;96009.09;4992935;28;20572;-78
2022/08/26 04:38:29;;;;;;;18.63;14.13;;;;;;;18.02;89.79;96006.72;4992130;28;20541;-80
2022/08/26 04:40:56;;;;;;;26.42;16.65;;;;;;;17.87;89.91;96011.25;4997626;28;20050;-81
2022/08/26 04:43:22;;;;;;;22.48;15.02;;;;;;;17.89;90.05;96009.72;4992156;28;20077;-78
2022/08/26 04:45:50;;;;;;;20.92;13.85;;;;;;;17.99;90.43;96011.00;4992055;28;20461;-79
2022/08/26 04:48:16;;;;;;;20.35;15.05;;;;;;;18.05;90.08;96017.00;4991259;28;20042;-79
2022/08/26 04:50:43;;;;;;;25.40;14.00;;;;;;;18.03;90.11;96013.81;4994376;28;20038;-79
2022/08/26 04:53:09;;;;;;;22.02;13.95;;;;;;;18.07;89.88;96025.69;4995441;28;20046;-79
2022/08/26 04:55:36;;;;;;;19.02;12.90;;;;;;;18.05;89.94;96017.00;4993684;28;20064;-78
2022/08/26 04:58:02;;;;;;;19.73;14.20;;;;;;;18.09;90.08;96026.09;4992189;28;20054;-80
2022/08/26 05:00:29;;;;;;;21.48;14.50;;;;;;;18.12;90.70;96022.59;4992205;28;20046;-79
2022/08/26 05:02:57;;;;;;;21.98;15.60;;;;;;;18.03;90.55;96017.38;4991451;28;20460;-79
2022/08/26 05:05:23;;;;;;;18.75;13.73;;;;;;;18.13;90.53;96021.44;4990869;28;20065;-79
2022/08/26 05:07:50;;;;;;;18.75;13.38;;;;;;;18.19;90.31;96022.69;4991296;28;20050;-81
2022/08/26 05:10:16;;;;;;;20.75;14.18;;;;;;;18.26;89.93;96018.03;4992450;28;20054;-79
2022/08/26 05:12:43;;;;;;;19.88;13.48;;;;;;;18.33;89.98;96022.06;4991166;28;20391;-80
2022/08/26 05:15:11;;;;;;;20.75;13.35;;;;;;;18.37;90.75;96031.94;4991158;28;20137;-79
2022/08/26 05:17:37;;;;;;;20.67;13.50;;;;;;;18.43;91.17;96022.19;4991881;28;20054;-80
2022/08/26 05:20:06;;;;;;;21.50;14.43;;;;;;;18.43;90.99;96024.94;4991344;28;20053;-79
2022/08/26 05:22:33;;;;;;;22.73;15.48;;;;;;;18.51;89.97;96023.84;4992652;28;20046;-79
2022/08/26 05:24:59;;;;;;;19.88;13.85;;;;;;;18.54;89.55;96022.31;4992575;28;20057;-79
2022/08/26 05:27:26;;;;;;;18.75;13.32;;;;;;;18.59;90.08;96032.22;4992171;28;20053;-79
2022/08/26 05:29:56;;;;;;;21.83;14.07;;;;;;;18.66;90.00;96030.31;4992189;28;20133;-80
2022/08/26 05:32:22;;;;;;;21.17;14.55;;;;;;;18.66;90.05;96038.59;4991422;28;20053;-80
2022/08/26 05:34:54;;;;;;;28.23;15.85;;;;;;;18.68;89.83;96029.94;4991588;28;20055;-80
2022/08/26 05:37:23;;;;;;;22.38;15.15;;;;;;;18.75;89.60;96030.03;4991014;28;20051;-80
2022/08/26 05:39:49;;;;;;;21.58;13.95;;;;;;;18.86;89.83;96033.69;4991288;28;20425;-80
2022/08/26 05:42:16;;;;;;;33.92;22.13;;;;;;;18.80;89.19;96029.69;4991094;28;20054;-79
2022/08/26 05:44:42;;;;;;;21.50;15.13;;;;;;;18.84;88.88;96030.50;4994493;28;20049;-80
2022/08/26 05:47:09;;;;;;;23.40;15.63;;;;;;;18.97;89.06;96037.34;4994616;28;20054;-80
2022/08/26 05:49:35;;;;;;;23.45;14.30;;;;;;;18.94;87.99;96035.34;4994822;28;20508;-80
2022/08/26 05:52:02;;;;;;;21.10;14.00;;;;;;;18.91;88.32;96036.09;4994356;28;20061;-78
2022/08/26 05:54:32;;;;;;;21.45;14.90;;;;;;;18.87;89.13;96035.28;4995390;28;20406;-81
2022/08/26 05:56:59;;;;;;;16.95;12.38;;;;;;;18.98;88.94;96046.41;4998285;28;20046;-80
2022/08/26 05:59:25;;;;;;;19.73;13.27;;;;;;;19.07;88.90;96033.09;4994586;28;20069;-80
2022/08/26 06:01:53;;;;;;;20.92;13.18;;;;;;;19.05;89.34;96035.44;4998864;28;20079;-80
2022/08/26 06:04:19;;;;;;;21.60;13.68;;;;;;;19.09;89.34;96041.00;4995413;28;20074;-80
2022/08/26 06:06:46;;;;;;;25.17;14.25;;;;;;;19.08;89.28;96040.19;4994797;28;20049;-80
2022/08/26 06:09:12;;;;;;;19.17;13.25;;;;;;;19.09;88.99;96041.78;4999442;28;20652;-79
2022/08/26 06:11:40;;;;;;;21.92;13.48;;;;;;;19.22;88.80;96043.09;4994578;28;20410;-80
2022/08/26 06:14:08;;;;;;;16.02;11.80;;;;;;;19.33;88.48;96040.41;4994214;28;20050;-79
2022/08/26 06:19:11;;;;;;;23.15;15.68;;;;;;;19.43;88.50;96053.50;5065015;23;20501;-78
2022/08/26 06:21:39;;;;;;;22.10;15.15;;;;;;;19.45;88.39;96048.41;5009048;28;20047;-78
2022/08/26 06:27:00;;;;;;;20.05;14.77;;;;;;;19.38;88.20;96053.06;5011057;28;20169;-78
2022/08/26 06:29:26;;;;;;;;;;;;;;;19.43;88.71;96049.97;5011196;28;20054;-78
2022/08/26 06:31:54;;;;;;;24.25;15.75;;;;;;;19.47;89.42;96050.75;5009234;28;19926;-78
2022/08/26 06:34:21;;;;;;;27.38;15.35;;;;;;;19.57;89.27;96050.06;5009406;28;20054;-78
2022/08/26 06:36:49;;;;;;;23.77;15.90;;;;;;;19.68;88.22;96045.44;5010975;28;20058;-78
2022/08/26 06:39:17;;;;;;;26.88;15.93;;;;;;;19.69;87.72;96047.03;5010900;28;20547;-77
2022/08/26 06:41:45;;;;;;;21.70;15.30;;;;;;;19.72;87.26;96046.25;5016368;28;20042;-77
2022/08/26 06:44:14;;;;;;;22.30;14.98;;;;;;;19.83;87.72;96046.31;5014575;28;20045;-77
2022/08/26 06:46:41;;;;;;;21.73;14.05;;;;;;;19.98;87.49;96045.22;5002284;28;20058;-77
2022/08/26 06:49:09;;;;;;;27.60;16.48;;;;;;;19.95;86.23;96043.25;5003000;28;20081;-78
2022/08/26 06:51:38;;;;;;;25.17;16.98;;;;;;;19.70;88.04;96056.09;5024335;28;20037;-81
2022/08/26 06:54:06;;;;;;;29.23;17.08;;;;;;;19.79;88.15;96051.03;4994858;23;20414;-82
2022/08/26 06:56:34;;;;;;;24.98;16.55;;;;;;;19.90;87.71;96051.91;4980780;28;20127;-80
2022/08/26 06:59:01;;;;;;;20.95;15.57;;;;;;;20.04;87.05;96051.94;4973052;28;20674;-81
2022/08/26 07:01:31;;;;;;;23.88;15.93;;;;;;;20.12;86.62;96052.00;4973672;28;20802;-83
2022/08/26 07:04:00;;;;;;;26.50;15.35;;;;;;;20.15;86.40;96048.47;4972991;28;20047;-80
2022/08/26 07:06:27;;;;;;;27.70;15.05;;;;;;;20.20;87.76;96048.09;4976887;28;20047;-82
2022/08/26 07:09:00;;;;;;;26.60;16.52;;;;;;;20.37;86.56;96063.19;4973780;28;20053;-81
2022/08/26 07:11:27;;;;;;;24.40;15.50;;;;;;;20.42;85.98;96062.81;4976763;28;20047;-82
2022/08/26 07:13:53;;;;;;;26.45;15.00;;;;;;;20.58;86.55;96064.09;4983787;28;20047;-83
2022/08/26 07:16:20;;;;;;;24.92;16.60;;;;;;;20.57;84.78;96061.72;5183387;23;20021;-86
2022/08/26 07:18:51;;;;;;;22.58;15.77;;;;;;;20.71;85.63;96070.06;5056885;23;20044;-80
2022/08/26 07:21:18;;;;;;;24.65;16.13;;;;;;;20.58;83.47;96069.63;5014418;28;20420;-78
2022/08/26 07:23:45;;;;;;;25.73;15.73;;;;;;;20.64;82.94;96063.72;5007798;28;20602;-78
2022/08/26 07:26:15;;;;;;;24.20;15.13;;;;;;;20.53;82.02;96067.25;5008198;28;20080;-79
2022/08/26 07:28:41;;;;;;;24.30;13.93;;;;;;;20.44;80.85;96064.00;5009469;28;20120;-79
2022/08/26 07:31:10;;;;;;;21.63;13.35;;;;;;;20.64;81.71;96066.47;5009776;28;20425;-79
2022/08/26 07:33:38;;;;;;;18.48;12.07;;;;;;;20.80;80.35;96058.63;5010850;28;20053;-79
2022/08/26 07:36:07;;;;;;;21.17;12.23;;;;;;;20.88;80.32;96056.66;5009152;28;20508;-81
2022/08/26 07:41:09;;;;;;;22.73;11.63;;;;;;;21.21;79.15;96050.00;5078840;23;20089;-79
2022/08/26 07:43:37;;;;;;;17.50;10.63;;;;;;;21.31;78.15;96054.78;4990248;28;20060;-79
2022/08/26 07:46:04;;;;;;;18.65;11.35;;;;;;;21.32;78.51;96057.16;4989733;28;20046;-79
2022/08/26 07:48:31;;;;;;;17.17;10.70;;;;;;;21.45;78.22;96060.31;4991496;28;20089;-83
2022/08/26 07:50:58;;;;;;;20.45;11.68;;;;;;;21.45;76.83;96063.06;5039753;23;20050;-85
2022/08/26 07:53:26;;;;;;;19.38;10.75;;;;;;;21.43;76.30;96057.16;4994853;28;20065;-80
2022/08/26 07:55:53;;;;;;;18.15;11.77;;;;;;;21.41;75.44;96058.75;4998642;28;20508;-83
2022/08/26 07:58:19;;;;;;;18.77;12.10;;;;;;;21.56;76.17;96058.34;4993841;28;20077;-81
2022/08/26 08:00:47;;;;;;;16.17;11.57;;;;;;;21.63;75.14;96058.31;4990916;28;20050;-79
2022/08/26 08:03:14;;;;;;;16.58;11.70;;;;;;;21.61;75.82;96055.19;4991897;28;20104;-81
2022/08/26 08:05:41;;;;;;;17.10;11.35;;;;;;;21.55;75.69;96053.97;4994586;28;20089;-78
2022/08/26 08:08:09;;;;;;;16.02;11.18;;;;;;;21.61;76.51;96057.13;4989991;28;20098;-79
2022/08/26 08:10:38;;;;;;;14.20;9.80;;;;;;;21.78;75.96;96055.56;5001782;28;20046;-82
2022/08/26 08:13:06;;;;;;;15.35;11.63;;;;;;;21.86;77.94;96051.56;4994056;28;20079;-80
2022/08/26 08:15:33;;;;;;;21.38;10.82;;;;;;;21.95;74.60;96054.72;4995637;28;20093;-80
2022/08/26 08:18:00;;;;;;;15.15;9.55;;;;;;;22.02;74.75;96053.91;4996782;28;20042;-81
2022/08/26 08:20:28;;;;;;;14.55;10.60;;;;;;;22.09;74.35;96054.69;4997985;28;20043;-80
2022/08/26 08:22:56;;;;;;;16.95;11.32;;;;;;;22.16;74.51;96047.56;4990205;28;20097;-78
2022/08/26 08:25:23;;;;;;;18.00;10.35;;;;;;;22.20;74.69;96054.69;4987499;28;20406;-79
2022/08/26 08:27:51;;;;;;;18.20;10.63;;;;;;;22.29;73.19;96051.47;4988394;28;20045;-79
2022/08/26 08:30:21;;;;;;;15.10;10.75;;;;;;;22.25;73.92;96056.28;4988436;28;20517;-81
2022/08/26 08:32:48;;;;;;;15.63;10.05;;;;;;;22.36;75.08;96046.72;4988293;28;20477;-78
2022/08/26 08:35:21;;;;;;;17.08;10.93;;;;;;;22.42;75.70;96054.63;4987854;28;20050;-79
2022/08/26 08:37:49;;;;;;;12.48;8.55;;;;;;;22.56;74.45;96055.34;4988785;28;20099;-80
2022/08/26 08:40:17;;;;;;;20.63;12.18;;;;;;;22.50;73.99;96051.41;4988902;28;20061;-76
2022/08/26 08:42:46;;;;;;;19.30;11.40;;;;;;;22.54;73.82;96057.72;4987333;28;20748;-77
2022/08/26 08:45:18;;;;;;;19.05;10.73;;;;;;;22.53;72.77;96050.59;4987424;28;20513;-79
2022/08/26 08:47:50;;;;;;;16.35;10.65;;;;;;;22.71;73.02;96052.50;4987773;28;20050;-77
2022/08/26 08:50:23;;;;;;;14.23;9.50;;;;;;;22.79;73.74;96060.38;4980095;28;20055;-87
2022/08/26 08:52:57;;;;;;;13.13;9.10;;;;;;;22.83;74.19;96057.59;4964000;28;20105;-79
2022/08/26 08:55:31;;;;;;;15.82;8.73;;;;;;;22.92;72.65;96044.88;4971794;28;20046;-86
2022/08/26 08:58:05;;;;;;;19.20;10.35;;;;;;;22.96;69.76;96050.41;4990997;28;20058;-83
2022/08/26 09:00:46;;;;;;;17.77;10.13;;;;;;;22.94;70.96;96052.00;4967624;28;20388;-79
2022/08/26 09:03:24;;;;;;;14.43;9.38;;;;;;;23.07;71.57;96045.56;4972316;28;20062;-83
2022/08/26 09:05:54;;;;;;;16.92;10.88;;;;;;;23.09;69.55;96048.75;4989239;28;20043;-85
2022/08/26 09:08:27;;;;;;;15.45;9.57;;;;;;;23.24;70.22;96043.88;4968972;28;20055;-79
2022/08/26 09:10:55;;;;;;;16.67;9.98;;;;;;;23.36;68.46;96053.69;4980331;28;20051;-88
2022/08/26 09:13:23;;;;;;;15.95;9.20;;;;;;;23.35;69.58;96049.34;4975386;28;20058;-79
2022/08/26 09:16:01;;;;;;;13.45;8.60;;;;;;;23.37;70.11;96046.94;4968790;28;20584;-80
2022/08/26 09:18:37;;;;;;;13.48;8.27;;;;;;;23.33;70.90;96051.72;4975407;28;20070;-80
2022/08/26 09:21:06;;;;;;;12.73;8.23;;;;;;;23.36;70.44;96048.94;4974615;28;20474;-79
2022/08/26 09:23:35;;;;;;;17.40;9.93;;;;;;;23.38;70.74;96048.53;4972482;28;20050;-79
2022/08/26 09:26:16;;;;;;;15.55;9.45;;;;;;;23.39;69.84;96047.34;4973049;28;20055;-76
2022/08/26 09:28:46;;;;;;;12.85;8.57;;;;;;;23.51;70.47;96046.84;4973733;28;20063;-79
2022/08/26 09:31:20;;;;;;;18.58;9.40;;;;;;;23.61;70.59;96043.19;4972084;28;20051;-79
2022/08/26 09:33:47;;;;;;;15.32;8.88;;;;;;;23.66;67.11;96051.09;4973788;28;20050;-79
2022/08/26 09:36:21;;;;;;;13.18;8.80;;;;;;;23.76;69.71;96045.88;4972751;28;20407;-80
2022/08/26 09:38:48;;;;;;;16.67;9.75;;;;;;;23.79;68.74;96039.47;4972192;28;20051;-79
2022/08/26 09:41:26;;;;;;;13.20;9.70;;;;;;;23.72;66.64;96039.53;4970936;28;20057;-78
2022/08/26 09:44:14;;;;;;;13.68;8.65;;;;;;;23.63;66.90;96045.56;4971610;28;20065;-78
2022/08/26 09:46:46;;;;;;;12.18;8.35;;;;;;;23.58;67.86;96046.75;4971334;28;20043;-78
2022/08/26 09:49:28;;;;;;;11.13;7.88;;;;;;;23.59;69.77;96042.78;4970589;28;20051;-77
2022/08/26 09:52:09;;;;;;;12.50;8.25;;;;;;;23.62;69.51;96039.19;4971288;28;20054;-78
2022/08/26 09:54:36;;;;;;;12.48;8.55;;;;;;;23.67;69.77;96038.00;4952772;28;20074;-79
2022/08/26 09:57:17;;;;;;;11.52;8.02;;;;;;;23.66;69.53;96026.09;4971818;28;20113;-80
2022/08/26 09:59:44;;;;;;;14.13;9.10;;;;;;;23.66;69.09;96016.97;4972679;28;20050;-77
2022/08/26 10:02:35;;;;;;;14.48;8.82;;;;;;;23.84;69.02;96017.56;4970322;28;20051;-78
2022/08/26 10:05:06;;;;;;;17.05;7.85;;;;;;;24.09;66.54;96008.97;4974856;28;20046;-81
2022/08/26 10:07:45;;;;;;;12.35;7.80;;;;;;;24.28;63.68;96006.78;4978211;28;20058;-80
2022/08/26 10:10:18;;;;;;;14.40;7.82;;;;;;;24.37;63.51;96001.50;4974035;28;20042;-80
2022/08/26 10:12:58;;;;;;;;;;;;;;;24.54;66.60;96006.06;4974102;28;20046;-80
2022/08/26 10:15:27;;;;;;;12.45;7.72;;;;;;;24.71;63.16;96010.59;4973755;28;20257;-80
2022/08/26 10:18:04;;;;;;;18.20;9.48;;;;;;;24.69;62.82;96007.47;4963827;28;20089;-78
2022/08/26 10:20:36;;;;;;;12.35;7.00;;;;;;;24.50;61.84;95994.19;4971937;28;20039;-79
2022/08/26 10:23:07;;;;;;;11.53;7.17;;;;;;;24.62;64.20;95990.84;4980549;28;20049;-79
2022/08/26 10:25:40;;;;;;;15.35;8.32;;;;;;;24.68;62.28;95994.72;5029019;23;20126;-78
2022/08/26 10:28:15;;;;;;;12.32;7.55;;;;;;;24.59;64.70;95991.69;5010504;28;20057;-77
2022/08/26 10:30:46;;;;;;;13.27;7.88;;;;;;;24.66;64.33;95985.22;5001161;28;20062;-79
2022/08/26 10:33:15;;;;;;;13.07;8.30;;;;;;;24.72;66.51;95981.53;4997518;28;20050;-78
2022/08/26 10:35:49;;;;;;;15.73;8.77;;;;;;;24.66;65.88;95974.88;5010346;28;20045;-78
2022/08/26 10:38:21;;;;;;;15.82;9.00;;;;;;;24.31;65.11;95975.31;5013410;28;20062;-78
2022/08/26 10:40:58;;;;;;;14.88;8.45;;;;;;;24.27;65.73;95978.13;5018865;28;20033;-80
2022/08/26 10:43:27;;;;;;;12.25;8.73;;;;;;;24.24;66.86;95976.19;5018172;28;20053;-80
2022/08/26 10:45:58;;;;;;;12.88;8.68;;;;;;;24.38;66.37;95973.28;5015843;28;20069;-80
2022/08/26 10:48:34;;;;;;;13.57;8.57;;;;;;;24.55;66.35;95971.47;5015325;28;20057;-80
2022/08/26 10:51:02;;;;;;;12.73;8.15;;;;;;;24.68;66.16;95964.09;5014116;28;20050;-80
2022/08/26 10:53:37;;;;;;;16.27;9.02;;;;;;;24.83;65.35;95955.53;5008819;28;20046;-80
2022/08/26 10:56:11;;;;;;;13.75;8.90;;;;;;;24.60;65.33;95957.06;5009429;28;20056;-82
2022/08/26 10:58:54;;;;;;;16.85;9.32;;;;;;;24.67;63.88;95948.59;5014626;28;20060;-80
2022/08/26 11:01:45;;;;;;;13.20;8.30;;;;;;;24.58;64.99;95956.69;5016052;28;20038;-80
2022/08/26 11:04:39;;;;;;;12.38;8.20;;;;;;;24.82;63.13;95953.97;5015763;28;20046;-80
2022/08/26 11:07:28;;;;;;;12.63;8.07;;;;;;;24.96;64.78;95953.75;5010994;28;20062;-80
2022/08/26 11:09:55;;;;;;;11.40;7.05;;;;;;;25.19;62.57;95951.00;5008786;28;20136;-80
2022/08/26 11:12:48;;;;;;;12.18;6.90;;;;;;;25.14;61.77;95954.28;5007964;28;20625;-80
2022/08/26 11:15:57;;;;;;;15.32;7.85;;;;;;;25.24;61.20;95953.31;5008101;28;20057;-83
2022/08/26 11:18:44;;;;;;;14.13;7.15;;;;;;;25.34;60.47;95953.56;5007356;28;20440;-80
2022/08/26 11:21:46;;;;;;;13.93;6.90;;;;;;;25.34;60.11;95957.13;5008359;28;20057;-80
2022/08/26 11:24:49;;;;;;;20.88;7.47;;;;;;;25.29;60.62;95945.69;5007533;28;20077;-80
2022/08/26 11:27:53;;;;;;;10.35;7.00;;;;;;;24.86;59.71;95938.78;5003110;28;20064;-80
2022/08/26 11:30:50;;;;;;;12.02;6.93;;;;;;;24.84;58.47;95937.63;5011136;28;20566;-81
2022/08/26 11:33:53;;;;;;;13.57;6.95;;;;;;;25.10;59.61;95936.03;4952630;28;20055;-80
2022/08/26 11:36:59;;;;;;;12.98;6.97;;;;;;;25.11;56.58;95935.66;4988332;28;20073;-80
2022/08/26 11:39:47;;;;;;;10.50;6.30;;;;;;;25.30;56.94;95936.13;4908277;29;20059;-80
2022/08/26 11:42:26;;;;;;;15.70;7.03;;;;;;;25.23;57.27;95926.66;4985155;28;20061;-80
2022/08/26 11:44:55;;;;;;;10.38;6.57;;;;;;;25.33;57.21;95926.91;4988446;28;20062;-81